Spring Hill, California
Current Conditions -  °F | °C
As of 4:40 AM on Monday 24 Nov 2014 (Local Time) from KGOO Reporting Station
Clear Clear  
Wind Chill:   Ceiling: Unl
Heat Index:   Visibility: 10mi
Dew Point: -2°   Wind: 6mph
Humidity: 65%   Direction: 30°NNE
Pressure: 30.33"   Gusts: NA
Location:  39.2183°N, 120.924°W
Report Text: KGOO 241240Z AUTO 03005KT 10SM CLR 04/M02 A3033 RMK AO1
Loading
Personal Weather Stations






























Interactive Weather Map New forecast layout! Learn more

10-Day Weather Forecast

Advertisements
Track Severe Weather on mobile